sensor_id;sensor_type;location;lat;lon;timestamp;pressure;altitude;pressure_sealevel;temperature;humidity
70229;BME280;57617;51.988;5.854;2022-08-19T00:02:11;100891.47;;;21.24;67.13
70229;BME280;57617;51.988;5.854;2022-08-19T00:04:36;100892.78;;;21.27;67.23
70229;BME280;57617;51.988;5.854;2022-08-19T00:07:06;100890.25;;;21.30;67.24
70229;BME280;57617;51.988;5.854;2022-08-19T00:09:32;100879.50;;;21.29;67.11
70229;BME280;57617;51.988;5.854;2022-08-19T00:11:58;100887.50;;;21.30;67.05
70229;BME280;57617;51.988;5.854;2022-08-19T00:14:25;100881.97;;;21.30;67.16
70229;BME280;57617;51.988;5.854;2022-08-19T00:16:50;100884.72;;;21.30;67.38
70229;BME280;57617;51.988;5.854;2022-08-19T00:19:20;100890.56;;;21.29;67.34
70229;BME280;57617;51.988;5.854;2022-08-19T00:21:45;100886.97;;;21.28;67.36
70229;BME280;57617;51.988;5.854;2022-08-19T00:24:12;100882.06;;;21.25;67.50
70229;BME280;57617;51.988;5.854;2022-08-19T00:26:39;100890.66;;;21.24;67.67
70229;BME280;57617;51.988;5.854;2022-08-19T00:29:07;100876.97;;;21.19;67.81
70229;BME280;57617;51.988;5.854;2022-08-19T00:31:33;100882.50;;;21.19;67.57
70229;BME280;57617;51.988;5.854;2022-08-19T00:33:58;100881.97;;;21.17;67.52
70229;BME280;57617;51.988;5.854;2022-08-19T00:36:24;100879.84;;;21.14;67.69
70229;BME280;57617;51.988;5.854;2022-08-19T00:38:49;100877.19;;;21.09;67.75
70229;BME280;57617;51.988;5.854;2022-08-19T00:41:18;100880.25;;;21.07;67.72
70229;BME280;57617;51.988;5.854;2022-08-19T00:44:08;100881.06;;;21.08;68.33
70229;BME280;57617;51.988;5.854;2022-08-19T00:46:35;100879.75;;;21.05;67.82
70229;BME280;57617;51.988;5.854;2022-08-19T00:49:06;100886.06;;;21.06;68.14
70229;BME280;57617;51.988;5.854;2022-08-19T00:51:34;100885.56;;;21.04;67.87
70229;BME280;57617;51.988;5.854;2022-08-19T00:54:01;100891.41;;;21.02;68.11
70229;BME280;57617;51.988;5.854;2022-08-19T00:56:27;100891.41;;;21.02;68.00
70229;BME280;57617;51.988;5.854;2022-08-19T00:58:54;100889.47;;;21.03;68.21
70229;BME280;57617;51.988;5.854;2022-08-19T01:01:21;100885.03;;;21.02;68.20
70229;BME280;57617;51.988;5.854;2022-08-19T01:03:46;100890.38;;;20.98;68.12
70229;BME280;57617;51.988;5.854;2022-08-19T01:06:12;100891.81;;;20.96;68.15
70229;BME280;57617;51.988;5.854;2022-08-19T01:08:37;100885.78;;;20.94;68.18
70229;BME280;57617;51.988;5.854;2022-08-19T01:11:03;100885.84;;;20.89;68.32
70229;BME280;57617;51.988;5.854;2022-08-19T01:13:32;100890.03;;;20.86;68.29
70229;BME280;57617;51.988;5.854;2022-08-19T01:16:03;100890.88;;;20.87;68.28
70229;BME280;57617;51.988;5.854;2022-08-19T01:18:29;100890.63;;;20.83;68.33
70229;BME280;57617;51.988;5.854;2022-08-19T01:21:00;100886.53;;;20.81;68.36
70229;BME280;57617;51.988;5.854;2022-08-19T01:23:27;100886.03;;;20.79;68.47
70229;BME280;57617;51.988;5.854;2022-08-19T01:26:09;100888.91;;;20.74;68.55
70229;BME280;57617;51.988;5.854;2022-08-19T01:28:36;100887.97;;;20.65;68.69
70229;BME280;57617;51.988;5.854;2022-08-19T01:31:02;100889.41;;;20.62;68.68
70229;BME280;57617;51.988;5.854;2022-08-19T01:33:28;100888.59;;;20.62;68.59
70229;BME280;57617;51.988;5.854;2022-08-19T01:36:05;100897.19;;;20.60;68.72
70229;BME280;57617;51.988;5.854;2022-08-19T01:38:36;100898.06;;;20.56;68.95
70229;BME280;57617;51.988;5.854;2022-08-19T01:41:02;100893.19;;;20.53;68.62
70229;BME280;57617;51.988;5.854;2022-08-19T01:43:27;100882.66;;;20.55;68.69
70229;BME280;57617;51.988;5.854;2022-08-19T01:45:53;100884.28;;;20.56;68.82
70229;BME280;57617;51.988;5.854;2022-08-19T01:48:18;100881.00;;;20.54;68.71
70229;BME280;57617;51.988;5.854;2022-08-19T01:50:44;100889.78;;;20.56;68.74
70229;BME280;57617;51.988;5.854;2022-08-19T01:53:11;100896.66;;;20.58;68.79
70229;BME280;57617;51.988;5.854;2022-08-19T01:55:39;100897.69;;;20.62;68.54
70229;BME280;57617;51.988;5.854;2022-08-19T01:58:08;100892.69;;;20.64;68.56
70229;BME280;57617;51.988;5.854;2022-08-19T02:00:35;100892.38;;;20.66;68.54
70229;BME280;57617;51.988;5.854;2022-08-19T02:03:01;100885.75;;;20.67;68.58
70229;BME280;57617;51.988;5.854;2022-08-19T02:05:26;100892.91;;;20.68;68.49
70229;BME280;57617;51.988;5.854;2022-08-19T02:07:54;100896.47;;;20.68;68.69
70229;BME280;57617;51.988;5.854;2022-08-19T02:10:21;100903.00;;;20.72;68.74
70229;BME280;57617;51.988;5.854;2022-08-19T02:12:47;100902.13;;;20.77;68.66
70229;BME280;57617;51.988;5.854;2022-08-19T02:15:14;100908.03;;;20.84;68.86
70229;BME280;57617;51.988;5.854;2022-08-19T02:17:41;100897.50;;;20.86;68.77
70229;BME280;57617;51.988;5.854;2022-08-19T02:20:07;100902.53;;;20.97;68.77
70229;BME280;57617;51.988;5.854;2022-08-19T02:22:33;100898.25;;;21.05;68.64
70229;BME280;57617;51.988;5.854;2022-08-19T02:24:58;100901.75;;;21.10;68.68
70229;BME280;57617;51.988;5.854;2022-08-19T02:27:24;100901.75;;;21.10;68.69
70229;BME280;57617;51.988;5.854;2022-08-19T02:29:51;100907.25;;;21.10;68.71
70229;BME280;57617;51.988;5.854;2022-08-19T02:32:17;100908.38;;;21.09;68.72
70229;BME280;57617;51.988;5.854;2022-08-19T02:34:45;100907.03;;;21.07;68.79
70229;BME280;57617;51.988;5.854;2022-08-19T02:37:10;100901.31;;;21.03;68.79
70229;BME280;57617;51.988;5.854;2022-08-19T02:39:56;100895.28;;;21.01;68.73
70229;BME280;57617;51.988;5.854;2022-08-19T02:42:21;100899.88;;;21.06;68.78
70229;BME280;57617;51.988;5.854;2022-08-19T02:44:47;100892.72;;;21.05;68.45
70229;BME280;57617;51.988;5.854;2022-08-19T02:47:12;100904.81;;;21.09;68.60
70229;BME280;57617;51.988;5.854;2022-08-19T02:49:39;100906.44;;;21.10;68.56
70229;BME280;57617;51.988;5.854;2022-08-19T02:52:04;100898.16;;;21.10;68.56
70229;BME280;57617;51.988;5.854;2022-08-19T02:54:30;100906.44;;;21.10;68.51
70229;BME280;57617;51.988;5.854;2022-08-19T02:56:55;100904.50;;;21.10;68.49
70229;BME280;57617;51.988;5.854;2022-08-19T02:59:20;100902.34;;;21.07;68.57
70229;BME280;57617;51.988;5.854;2022-08-19T03:01:46;100903.47;;;21.06;68.48
70229;BME280;57617;51.988;5.854;2022-08-19T03:04:13;100903.78;;;21.05;68.53
70229;BME280;57617;51.988;5.854;2022-08-19T03:06:41;100906.63;;;21.00;68.55
70229;BME280;57617;51.988;5.854;2022-08-19T03:09:07;100901.03;;;20.91;68.47
70229;BME280;57617;51.988;5.854;2022-08-19T03:11:33;100904.69;;;20.87;68.66
70229;BME280;57617;51.988;5.854;2022-08-19T03:13:59;100903.94;;;20.81;68.65
70229;BME280;57617;51.988;5.854;2022-08-19T03:16:27;100906.50;;;20.78;68.85
70229;BME280;57617;51.988;5.854;2022-08-19T03:18:53;100908.25;;;20.74;68.85
70229;BME280;57617;51.988;5.854;2022-08-19T03:21:22;100899.75;;;20.70;68.72
70229;BME280;57617;51.988;5.854;2022-08-19T03:23:49;100903.09;;;20.67;68.89
70229;BME280;57617;51.988;5.854;2022-08-19T03:26:15;100898.50;;;20.63;68.86
70229;BME280;57617;51.988;5.854;2022-08-19T03:28:44;100909.03;;;20.61;68.99
70229;BME280;57617;51.988;5.854;2022-08-19T03:31:16;100906.06;;;20.57;68.90
70229;BME280;57617;51.988;5.854;2022-08-19T03:33:42;100911.88;;;20.56;69.10
70229;BME280;57617;51.988;5.854;2022-08-19T03:36:11;100909.75;;;20.53;69.13
70229;BME280;57617;51.988;5.854;2022-08-19T03:38:40;100916.97;;;20.49;69.00
70229;BME280;57617;51.988;5.854;2022-08-19T03:41:08;100916.47;;;20.47;69.25
70229;BME280;57617;51.988;5.854;2022-08-19T03:43:36;100925.06;;;20.45;69.22
70229;BME280;57617;51.988;5.854;2022-08-19T03:46:03;100907.16;;;20.43;69.36
70229;BME280;57617;51.988;5.854;2022-08-19T03:48:30;100911.56;;;20.44;69.32
70229;BME280;57617;51.988;5.854;2022-08-19T03:50:57;100912.97;;;20.41;69.13
70229;BME280;57617;51.988;5.854;2022-08-19T03:53:24;100908.09;;;20.38;69.37
70229;BME280;57617;51.988;5.854;2022-08-19T03:55:51;100913.91;;;20.37;69.44
70229;BME280;57617;51.988;5.854;2022-08-19T03:58:16;100908.38;;;20.37;69.50
70229;BME280;57617;51.988;5.854;2022-08-19T04:00:42;100911.13;;;20.37;69.14
70229;BME280;57617;51.988;5.854;2022-08-19T04:03:08;100913.91;;;20.37;69.33
70229;BME280;57617;51.988;5.854;2022-08-19T04:05:33;100904.28;;;20.34;69.52
70229;BME280;57617;51.988;5.854;2022-08-19T04:07:59;100898.22;;;20.32;69.56
70229;BME280;57617;51.988;5.854;2022-08-19T04:10:24;100902.94;;;20.32;69.75
70229;BME280;57617;51.988;5.854;2022-08-19T04:12:50;100897.44;;;20.32;69.73
70229;BME280;57617;51.988;5.854;2022-08-19T04:15:15;100902.31;;;20.35;69.92
70229;BME280;57617;51.988;5.854;2022-08-19T04:17:40;100902.03;;;20.36;69.66
70229;BME280;57617;51.988;5.854;2022-08-19T04:20:06;100904.50;;;20.38;69.60
70229;BME280;57617;51.988;5.854;2022-08-19T04:22:31;100902.88;;;20.37;69.59
70229;BME280;57617;51.988;5.854;2022-08-19T04:24:56;100905.91;;;20.35;69.76
70229;BME280;57617;51.988;5.854;2022-08-19T04:27:22;100898.47;;;20.36;69.67
70229;BME280;57617;51.988;5.854;2022-08-19T04:29:47;100873.16;;;20.15;69.87
70229;BME280;57617;51.988;5.854;2022-08-19T04:32:13;100888.94;;;20.28;70.06
70229;BME280;57617;51.988;5.854;2022-08-19T04:34:40;100895.34;;;20.24;69.83
70229;BME280;57617;51.988;5.854;2022-08-19T04:37:08;100893.22;;;20.21;70.10
70229;BME280;57617;51.988;5.854;2022-08-19T04:39:37;100892.19;;;20.17;70.27
70229;BME280;57617;51.988;5.854;2022-08-19T04:42:22;100887.25;;;20.14;70.12
70229;BME280;57617;51.988;5.854;2022-08-19T04:45:08;100881.28;;;20.07;70.23
70229;BME280;57617;51.988;5.854;2022-08-19T04:47:39;100863.34;;;19.91;70.29
70229;BME280;57617;51.988;5.854;2022-08-19T04:50:05;100882.50;;;20.01;70.42
70229;BME280;57617;51.988;5.854;2022-08-19T04:52:31;100880.03;;;19.99;70.43
70229;BME280;57617;51.988;5.854;2022-08-19T04:54:57;100876.44;;;19.99;70.29
70229;BME280;57617;51.988;5.854;2022-08-19T04:57:24;100892.47;;;19.97;70.52
70229;BME280;57617;51.988;5.854;2022-08-19T04:59:53;100883.47;;;19.91;70.52
70229;BME280;57617;51.988;5.854;2022-08-19T05:02:19;100895.75;;;19.99;70.52
70229;BME280;57617;51.988;5.854;2022-08-19T05:04:45;100896.38;;;19.96;70.30
70229;BME280;57617;51.988;5.854;2022-08-19T05:07:10;100901.34;;;19.94;70.48
70229;BME280;57617;51.988;5.854;2022-08-19T05:09:35;100893.59;;;19.96;70.56
70229;BME280;57617;51.988;5.854;2022-08-19T05:12:01;100895.25;;;19.97;70.54
70229;BME280;57617;51.988;5.854;2022-08-19T05:14:26;100899.91;;;19.96;70.45
70229;BME280;57617;51.988;5.854;2022-08-19T05:16:51;100897.16;;;19.96;70.43
70229;BME280;57617;51.988;5.854;2022-08-19T05:19:17;100904.34;;;19.97;70.19
70229;BME280;57617;51.988;5.854;2022-08-19T05:22:01;100895.53;;;19.95;70.47
70229;BME280;57617;51.988;5.854;2022-08-19T05:24:45;100904.09;;;19.94;70.79
70229;BME280;57617;51.988;5.854;2022-08-19T05:27:10;100893.91;;;19.94;70.61
70229;BME280;57617;51.988;5.854;2022-08-19T05:29:35;100891.16;;;19.94;70.49
70229;BME280;57617;51.988;5.854;2022-08-19T05:32:02;100899.13;;;19.96;70.30
70229;BME280;57617;51.988;5.854;2022-08-19T05:34:30;100903.22;;;19.98;70.32
70229;BME280;57617;51.988;5.854;2022-08-19T05:36:57;100903.22;;;19.98;70.34
70229;BME280;57617;51.988;5.854;2022-08-19T05:39:27;100908.72;;;19.98;70.59
70229;BME280;57617;51.988;5.854;2022-08-19T05:42:01;100901.25;;;19.99;70.74
70229;BME280;57617;51.988;5.854;2022-08-19T05:44:29;100888.81;;;20.01;70.59
70229;BME280;57617;51.988;5.854;2022-08-19T05:47:02;100899.75;;;20.06;70.60
70229;BME280;57617;51.988;5.854;2022-08-19T05:49:30;100897.47;;;20.13;70.62
70229;BME280;57617;51.988;5.854;2022-08-19T05:51:56;100902.59;;;20.20;70.81
70229;BME280;57617;51.988;5.854;2022-08-19T05:54:22;100910.78;;;20.25;70.74
70229;BME280;57617;51.988;5.854;2022-08-19T05:56:48;100905.72;;;20.32;70.83
70229;BME280;57617;51.988;5.854;2022-08-19T05:59:16;100912.19;;;20.41;70.99
70229;BME280;57617;51.988;5.854;2022-08-19T06:01:43;100913.72;;;20.47;70.85
70229;BME280;57617;51.988;5.854;2022-08-19T06:04:10;100912.19;;;20.54;70.81
70229;BME280;57617;51.988;5.854;2022-08-19T06:06:36;100911.28;;;20.59;70.93
70229;BME280;57617;51.988;5.854;2022-08-19T06:09:06;100918.03;;;20.66;71.14
70229;BME280;57617;51.988;5.854;2022-08-19T06:11:40;100914.06;;;20.72;71.25
70229;BME280;57617;51.988;5.854;2022-08-19T06:14:11;100913.66;;;20.79;71.56
70229;BME280;57617;51.988;5.854;2022-08-19T06:16:38;100904.78;;;20.82;71.19
70229;BME280;57617;51.988;5.854;2022-08-19T06:19:06;100921.69;;;20.94;71.46
70229;BME280;57617;51.988;5.854;2022-08-19T06:21:34;100916.06;;;20.99;71.49
70229;BME280;57617;51.988;5.854;2022-08-19T06:24:02;100922.91;;;21.01;71.64
70229;BME280;57617;51.988;5.854;2022-08-19T06:26:28;100919.84;;;21.03;71.78
70229;BME280;57617;51.988;5.854;2022-08-19T06:28:54;100926.91;;;21.09;71.71
70229;BME280;57617;51.988;5.854;2022-08-19T06:31:25;100931.19;;;21.15;71.76
70229;BME280;57617;51.988;5.854;2022-08-19T06:33:51;100930.06;;;21.16;71.63
70229;BME280;57617;51.988;5.854;2022-08-19T06:36:18;100934.88;;;21.10;72.05
70229;BME280;57617;51.988;5.854;2022-08-19T06:38:44;100924.03;;;21.14;72.04
70229;BME280;57617;51.988;5.854;2022-08-19T06:41:09;100927.81;;;21.18;72.28
70229;BME280;57617;51.988;5.854;2022-08-19T06:43:35;100926.91;;;21.22;72.19
70229;BME280;57617;51.988;5.854;2022-08-19T06:46:01;100928.94;;;21.30;72.28
70229;BME280;57617;51.988;5.854;2022-08-19T06:48:28;100924.22;;;21.31;72.26
70229;BME280;57617;51.988;5.854;2022-08-19T06:50:53;100925.25;;;21.35;72.31
70229;BME280;57617;51.988;5.854;2022-08-19T06:53:19;100927.06;;;21.39;72.06
70229;BME280;57617;51.988;5.854;2022-08-19T06:55:45;100920.09;;;21.42;72.12
70229;BME280;57617;51.988;5.854;2022-08-19T06:58:10;100923.41;;;21.44;72.20
70229;BME280;57617;51.988;5.854;2022-08-19T07:00:36;100925.81;;;21.45;72.15
70229;BME280;57617;51.988;5.854;2022-08-19T07:03:02;100923.91;;;21.46;72.05
70229;BME280;57617;51.988;5.854;2022-08-19T07:05:27;100927.16;;;21.48;72.07
70229;BME280;57617;51.988;5.854;2022-08-19T07:07:52;100935.66;;;21.51;72.02
70229;BME280;57617;51.988;5.854;2022-08-19T07:10:18;100939.97;;;21.57;71.82
70229;BME280;57617;51.988;5.854;2022-08-19T07:12:44;100932.28;;;21.54;71.89
70229;BME280;57617;51.988;5.854;2022-08-19T07:15:10;100930.81;;;21.57;71.74
70229;BME280;57617;51.988;5.854;2022-08-19T07:17:36;100934.00;;;21.64;71.74
70229;BME280;57617;51.988;5.854;2022-08-19T07:20:05;100937.75;;;21.68;71.68
70229;BME280;57617;51.988;5.854;2022-08-19T07:22:38;100943.03;;;21.69;71.44
70229;BME280;57617;51.988;5.854;2022-08-19T07:25:06;100939.13;;;21.70;71.21
70229;BME280;57617;51.988;5.854;2022-08-19T07:27:32;100931.84;;;21.74;70.97
70229;BME280;57617;51.988;5.854;2022-08-19T07:29:57;100943.94;;;21.78;71.11
70229;BME280;57617;51.988;5.854;2022-08-19T07:32:23;100949.66;;;21.82;71.01
70229;BME280;57617;51.988;5.854;2022-08-19T07:34:50;100953.44;;;21.86;70.96
70229;BME280;57617;51.988;5.854;2022-08-19T07:37:16;100957.72;;;21.92;70.53
70229;BME280;57617;51.988;5.854;2022-08-19T07:39:41;100965.91;;;21.97;70.74
70229;BME280;57617;51.988;5.854;2022-08-19T07:42:08;100959.41;;;22.01;70.53
70229;BME280;57617;51.988;5.854;2022-08-19T07:44:35;100953.44;;;22.08;70.22
70229;BME280;57617;51.988;5.854;2022-08-19T07:47:01;100962.78;;;22.12;70.12
70229;BME280;57617;51.988;5.854;2022-08-19T07:49:27;100954.97;;;22.14;69.97
70229;BME280;57617;51.988;5.854;2022-08-19T07:51:55;100968.88;;;22.22;70.07
70229;BME280;57617;51.988;5.854;2022-08-19T07:54:23;100963.53;;;22.26;70.06
70229;BME280;57617;51.988;5.854;2022-08-19T07:56:49;100964.53;;;22.30;69.49
70229;BME280;57617;51.988;5.854;2022-08-19T07:59:16;100958.50;;;22.28;69.47
70229;BME280;57617;51.988;5.854;2022-08-19T08:01:43;100968.00;;;22.35;69.55
70229;BME280;57617;51.988;5.854;2022-08-19T08:04:09;100968.19;;;22.39;69.21
70229;BME280;57617;51.988;5.854;2022-08-19T08:06:53;100972.91;;;22.38;69.18
70229;BME280;57617;51.988;5.854;2022-08-19T08:09:39;100962.66;;;22.39;69.16
70229;BME280;57617;51.988;5.854;2022-08-19T08:14:47;100960.53;;;22.36;68.92
70229;BME280;57617;51.988;5.854;2022-08-19T08:17:15;100973.41;;;22.40;68.86
70229;BME280;57617;51.988;5.854;2022-08-19T08:19:41;100974.53;;;22.39;68.50
70229;BME280;57617;51.988;5.854;2022-08-19T08:22:08;100980.88;;;22.40;68.32
70229;BME280;57617;51.988;5.854;2022-08-19T08:24:53;100975.69;;;22.38;68.30
70229;BME280;57617;51.988;5.854;2022-08-19T08:27:19;100977.50;;;22.43;68.33
70229;BME280;57617;51.988;5.854;2022-08-19T08:29:44;100982.09;;;22.47;68.17
70229;BME280;57617;51.988;5.854;2022-08-19T08:32:10;100991.75;;;22.50;67.86
70229;BME280;57617;51.988;5.854;2022-08-19T08:34:35;100983.78;;;22.48;67.44
70229;BME280;57617;51.988;5.854;2022-08-19T08:37:02;100994.06;;;22.56;67.49
70229;BME280;57617;51.988;5.854;2022-08-19T08:39:28;100991.47;;;22.60;67.51
70229;BME280;57617;51.988;5.854;2022-08-19T08:42:06;100972.75;;;22.57;66.94
70229;BME280;57617;51.988;5.854;2022-08-19T08:44:59;101000.41;;;22.79;66.68
70229;BME280;57617;51.988;5.854;2022-08-19T08:47:29;100993.25;;;22.78;66.52
70229;BME280;57617;51.988;5.854;2022-08-19T08:50:00;100997.38;;;22.89;65.99
70229;BME280;57617;51.988;5.854;2022-08-19T08:52:30;100999.53;;;22.92;65.88
70229;BME280;57617;51.988;5.854;2022-08-19T08:54:59;101002.16;;;22.97;65.83
70229;BME280;57617;51.988;5.854;2022-08-19T08:57:36;101001.69;;;23.03;64.58
70229;BME280;57617;51.988;5.854;2022-08-19T09:00:08;100997.13;;;23.07;64.28
70229;BME280;57617;51.988;5.854;2022-08-19T09:02:35;100997.00;;;23.12;64.76
70229;BME280;57617;51.988;5.854;2022-08-19T09:05:00;100993.25;;;23.17;64.52
70229;BME280;57617;51.988;5.854;2022-08-19T09:07:42;100994.59;;;23.19;63.55
70229;BME280;57617;51.988;5.854;2022-08-19T09:10:37;100990.06;;;23.23;64.18
70229;BME280;57617;51.988;5.854;2022-08-19T09:15:51;100988.34;;;23.44;63.69
70229;BME280;57617;51.988;5.854;2022-08-19T09:18:17;100986.91;;;23.55;63.83
70229;BME280;57617;51.988;5.854;2022-08-19T09:20:43;100991.38;;;23.73;63.44
70229;BME280;57617;51.988;5.854;2022-08-19T09:23:09;100984.06;;;23.94;63.41
70229;BME280;57617;51.988;5.854;2022-08-19T09:25:36;100987.84;;;24.15;62.33
70229;BME280;57617;51.988;5.854;2022-08-19T09:28:02;100987.84;;;24.32;62.33
70229;BME280;57617;51.988;5.854;2022-08-19T09:30:32;100970.69;;;24.30;62.17
70229;BME280;57617;51.988;5.854;2022-08-19T09:32:57;100995.16;;;24.54;61.49
70229;BME280;57617;51.988;5.854;2022-08-19T09:35:25;101000.72;;;24.54;61.59
70229;BME280;57617;51.988;5.854;2022-08-19T09:37:52;101005.66;;;24.48;61.31
70229;BME280;57617;51.988;5.854;2022-08-19T09:40:18;101001.88;;;24.44;61.66
70229;BME280;57617;51.988;5.854;2022-08-19T09:42:44;101008.75;;;24.55;60.93
70229;BME280;57617;51.988;5.854;2022-08-19T09:45:12;101011.50;;;24.55;60.87
70229;BME280;57617;51.988;5.854;2022-08-19T09:47:37;101009.56;;;24.56;60.70
70229;BME280;57617;51.988;5.854;2022-08-19T09:50:05;100999.13;;;24.61;60.15
70229;BME280;57617;51.988;5.854;2022-08-19T09:52:32;100997.16;;;24.70;60.22
70229;BME280;57617;51.988;5.854;2022-08-19T09:54:57;101004.81;;;24.82;59.59
70229;BME280;57617;51.988;5.854;2022-08-19T09:57:22;101007.53;;;24.99;59.72
70229;BME280;57617;51.988;5.854;2022-08-19T09:59:48;101008.75;;;25.18;58.95
70229;BME280;57617;51.988;5.854;2022-08-19T10:02:13;101007.25;;;25.38;58.48
70229;BME280;57617;51.988;5.854;2022-08-19T10:04:38;101006.88;;;25.48;58.41
70229;BME280;57617;51.988;5.854;2022-08-19T10:07:22;101009.06;;;25.63;57.76
70229;BME280;57617;51.988;5.854;2022-08-19T10:09:47;101010.03;;;25.67;57.40
70229;BME280;57617;51.988;5.854;2022-08-19T10:12:12;101018.88;;;25.69;56.44
70229;BME280;57617;51.988;5.854;2022-08-19T10:14:39;101016.03;;;25.77;56.42
70229;BME280;57617;51.988;5.854;2022-08-19T10:17:04;101010.38;;;25.94;56.18
70229;BME280;57617;51.988;5.854;2022-08-19T10:19:29;101012.13;;;26.07;55.21
70229;BME280;57617;51.988;5.854;2022-08-19T10:22:04;101004.28;;;26.21;54.69
70229;BME280;57617;51.988;5.854;2022-08-19T10:24:30;101003.53;;;26.33;54.38
70229;BME280;57617;51.988;5.854;2022-08-19T10:26:56;101000.81;;;26.45;54.14
70229;BME280;57617;51.988;5.854;2022-08-19T10:29:22;101004.66;;;26.52;54.06
70229;BME280;57617;51.988;5.854;2022-08-19T10:31:47;101010.91;;;26.70;53.88
70229;BME280;57617;51.988;5.854;2022-08-19T10:34:13;101006.19;;;26.82;53.47
70229;BME280;57617;51.988;5.854;2022-08-19T10:36:38;101001.22;;;26.88;52.96
70229;BME280;57617;51.988;5.854;2022-08-19T10:39:07;101010.41;;;26.88;52.39
70229;BME280;57617;51.988;5.854;2022-08-19T10:41:36;101008.53;;;26.92;52.36
70229;BME280;57617;51.988;5.854;2022-08-19T10:44:07;101001.72;;;27.02;51.74
70229;BME280;57617;51.988;5.854;2022-08-19T10:46:36;101005.59;;;27.09;51.89
70229;BME280;57617;51.988;5.854;2022-08-19T10:49:03;101001.06;;;27.17;51.95
70229;BME280;57617;51.988;5.854;2022-08-19T10:51:30;101005.63;;;27.21;51.58
70229;BME280;57617;51.988;5.854;2022-08-19T10:54:15;101000.97;;;27.25;51.61
70229;BME280;57617;51.988;5.854;2022-08-19T10:56:41;101002.72;;;27.30;51.54
70229;BME280;57617;51.988;5.854;2022-08-19T10:59:22;101007.84;;;27.28;50.69
70229;BME280;57617;51.988;5.854;2022-08-19T11:01:48;101000.28;;;27.28;50.93
70229;BME280;57617;51.988;5.854;2022-08-19T11:04:14;100990.16;;;27.36;50.51
70229;BME280;57617;51.988;5.854;2022-08-19T11:06:43;100988.28;;;27.52;50.45
70229;BME280;57617;51.988;5.854;2022-08-19T11:09:12;100984.59;;;27.60;49.85
70229;BME280;57617;51.988;5.854;2022-08-19T11:11:37;100989.09;;;27.64;49.66
70229;BME280;57617;51.988;5.854;2022-08-19T11:14:10;100980.88;;;27.68;49.54
70229;BME280;57617;51.988;5.854;2022-08-19T11:16:36;100984.94;;;27.70;49.32
70229;BME280;57617;51.988;5.854;2022-08-19T11:19:05;100988.88;;;27.69;49.12
70229;BME280;57617;51.988;5.854;2022-08-19T11:21:34;100987.63;;;27.79;48.99
70229;BME280;57617;51.988;5.854;2022-08-19T11:24:02;100967.38;;;27.70;49.30
70229;BME280;57617;51.988;5.854;2022-08-19T11:26:30;100975.06;;;27.85;49.29
70229;BME280;57617;51.988;5.854;2022-08-19T11:28:57;100983.63;;;27.92;49.18
70229;BME280;57617;51.988;5.854;2022-08-19T11:31:25;100989.56;;;27.90;49.24
70229;BME280;57617;51.988;5.854;2022-08-19T11:33:51;100988.09;;;27.81;49.07
70229;BME280;57617;51.988;5.854;2022-08-19T11:36:18;100986.78;;;27.78;49.09
70229;BME280;57617;51.988;5.854;2022-08-19T11:38:45;100994.31;;;27.78;49.03
70229;BME280;57617;51.988;5.854;2022-08-19T11:41:12;100990.53;;;27.82;48.86
70229;BME280;57617;51.988;5.854;2022-08-19T11:43:37;100984.81;;;27.91;48.47
70229;BME280;57617;51.988;5.854;2022-08-19T11:46:06;100974.47;;;27.91;48.01
70229;BME280;57617;51.988;5.854;2022-08-19T11:48:32;100983.28;;;27.93;47.74
70229;BME280;57617;51.988;5.854;2022-08-19T11:50:58;100981.53;;;28.01;48.03
70229;BME280;57617;51.988;5.854;2022-08-19T11:53:23;100980.13;;;28.07;48.20
70229;BME280;57617;51.988;5.854;2022-08-19T11:55:50;100982.41;;;28.17;47.57
70229;BME280;57617;51.988;5.854;2022-08-19T11:58:17;100978.78;;;28.28;47.67
70229;BME280;57617;51.988;5.854;2022-08-19T12:00:43;100973.50;;;28.39;47.19
70229;BME280;57617;51.988;5.854;2022-08-19T12:03:11;100974.91;;;28.45;47.32
70229;BME280;57617;51.988;5.854;2022-08-19T12:05:37;100971.72;;;28.46;46.70
70229;BME280;57617;51.988;5.854;2022-08-19T12:08:03;100967.41;;;28.49;47.03
70229;BME280;57617;51.988;5.854;2022-08-19T12:10:28;100966.81;;;28.55;46.98
70229;BME280;57617;51.988;5.854;2022-08-19T12:12:54;100965.47;;;28.65;47.07
70229;BME280;57617;51.988;5.854;2022-08-19T12:15:19;100972.19;;;28.76;47.53
70229;BME280;57617;51.988;5.854;2022-08-19T12:17:44;100966.78;;;28.83;47.05
70229;BME280;57617;51.988;5.854;2022-08-19T12:20:11;100975.00;;;28.91;46.70
70229;BME280;57617;51.988;5.854;2022-08-19T12:22:38;100972.28;;;28.95;46.67
70229;BME280;57617;51.988;5.854;2022-08-19T12:25:07;100967.63;;;28.99;46.72
70229;BME280;57617;51.988;5.854;2022-08-19T12:27:33;100955.75;;;28.90;46.27
70229;BME280;57617;51.988;5.854;2022-08-19T12:29:58;100957.41;;;28.91;46.73
70229;BME280;57617;51.988;5.854;2022-08-19T12:32:25;100959.03;;;28.92;46.76
70229;BME280;57617;51.988;5.854;2022-08-19T12:34:51;100959.59;;;28.97;46.62
70229;BME280;57617;51.988;5.854;2022-08-19T12:37:16;100967.78;;;29.06;46.43
70229;BME280;57617;51.988;5.854;2022-08-19T12:39:43;100958.25;;;29.07;46.44
70229;BME280;57617;51.988;5.854;2022-08-19T12:42:10;100961.84;;;29.07;46.59
70229;BME280;57617;51.988;5.854;2022-08-19T12:44:37;100960.41;;;29.13;46.66
70229;BME280;57617;51.988;5.854;2022-08-19T12:47:04;100956.91;;;29.16;45.94
70229;BME280;57617;51.988;5.854;2022-08-19T12:49:30;100950.31;;;29.09;46.20
70229;BME280;57617;51.988;5.854;2022-08-19T12:51:58;100956.53;;;29.18;45.75
70229;BME280;57617;51.988;5.854;2022-08-19T12:54:23;100959.59;;;29.13;46.03
70229;BME280;57617;51.988;5.854;2022-08-19T12:56:49;100953.00;;;29.05;46.15
70229;BME280;57617;51.988;5.854;2022-08-19T12:59:14;100951.66;;;28.99;46.21